createdAt,value
2022-12-18T00:00:08.238Z,5.38
2022-12-18T00:02:41.827Z,5.35
2022-12-18T00:05:10.116Z,5.78
2022-12-18T00:07:38.324Z,4.13
2022-12-18T00:10:06.921Z,8.63
2022-12-18T00:12:34.912Z,5.50
2022-12-18T00:15:02.799Z,5.28
2022-12-18T00:17:30.762Z,5.35
2022-12-18T00:19:58.802Z,6.32
2022-12-18T00:22:26.811Z,3.97
2022-12-18T00:24:54.610Z,6.13
2022-12-18T00:27:22.595Z,4.95
2022-12-18T00:29:50.772Z,5.20
2022-12-18T00:32:18.703Z,6.03
2022-12-18T00:34:46.638Z,3.80
2022-12-18T00:37:19.734Z,3.92
2022-12-18T00:39:52.225Z,3.50
2022-12-18T00:42:40.014Z,3.10
2022-12-18T00:45:12.574Z,3.80
2022-12-18T00:47:41.301Z,3.83
2022-12-18T00:50:10.288Z,4.65
2022-12-18T00:55:09.575Z,3.60
2022-12-18T00:57:37.710Z,2.70
2022-12-18T01:00:07.501Z,3.67
2022-12-18T01:02:36.583Z,3.72
2022-12-18T01:05:05.720Z,3.72
2022-12-18T01:10:07.546Z,3.13
2022-12-18T01:12:36.896Z,3.50
2022-12-18T01:15:06.449Z,3.38
2022-12-18T01:17:35.136Z,3.63
2022-12-18T01:20:05.475Z,2.63
2022-12-18T01:22:34.233Z,3.00
2022-12-18T01:25:02.653Z,3.08
2022-12-18T01:27:31.093Z,3.03
2022-12-18T01:29:58.927Z,3.60
2022-12-18T01:32:30.325Z,2.58
2022-12-18T01:34:58.438Z,2.78
2022-12-18T01:37:28.638Z,2.70
2022-12-18T01:39:56.737Z,3.30
2022-12-18T01:42:24.873Z,2.90
2022-12-18T01:45:06.313Z,3.72
2022-12-18T01:47:45.761Z,3.22
2022-12-18T01:50:19.638Z,2.67
2022-12-18T01:52:55.141Z,2.40
2022-12-18T01:55:26.408Z,2.40
2022-12-18T01:57:57.759Z,2.70
2022-12-18T02:00:29.183Z,2.88
2022-12-18T02:02:57.418Z,3.03
2022-12-18T02:05:56.842Z,3.22
2022-12-18T02:08:38.924Z,2.10
2022-12-18T02:11:30.295Z,3.65
2022-12-18T02:14:38.799Z,3.90
2022-12-18T02:17:19.335Z,2.83
2022-12-18T02:20:02.874Z,2.58
2022-12-18T02:22:32.111Z,3.88
2022-12-18T02:25:22.599Z,3.40
2022-12-18T02:27:52.730Z,3.83
2022-12-18T02:30:23.071Z,3.90
2022-12-18T02:32:54.492Z,3.33
2022-12-18T02:35:26.184Z,2.92
2022-12-18T02:37:56.873Z,3.40
2022-12-18T02:40:28.763Z,3.15
2022-12-18T02:43:14.855Z,3.20
2022-12-18T02:45:53.932Z,3.10
2022-12-18T02:48:27.186Z,3.40
2022-12-18T02:51:09.824Z,4.35
2022-12-18T02:53:40.973Z,7.10
2022-12-18T02:56:16.944Z,4.40
2022-12-18T03:00:42.753Z,3.55
2022-12-18T03:03:31.328Z,2.78
2022-12-18T03:06:05.656Z,3.10
2022-12-18T03:08:39.796Z,3.40
2022-12-18T03:11:13.900Z,2.85
2022-12-18T03:13:48.895Z,3.75
2022-12-18T03:16:26.791Z,3.20
2022-12-18T03:19:05.348Z,3.42
2022-12-18T03:21:39.618Z,3.85
2022-12-18T03:24:10.687Z,3.75
2022-12-18T03:26:44.020Z,5.07
2022-12-18T03:29:27.893Z,3.05
2022-12-18T03:32:16.974Z,3.80
2022-12-18T03:34:48.847Z,3.38
2022-12-18T03:37:18.223Z,4.10
2022-12-18T03:39:47.514Z,3.30
2022-12-18T03:42:33.827Z,3.60
2022-12-18T03:51:12.370Z,3.80
2022-12-18T03:53:40.616Z,3.97
2022-12-18T03:56:10.446Z,3.80
2022-12-18T03:58:44.925Z,4.20
2022-12-18T04:01:21.329Z,4.32
2022-12-18T04:03:51.309Z,3.45
2022-12-18T04:06:22.397Z,4.15
2022-12-18T04:08:50.540Z,4.57
2022-12-18T04:11:22.391Z,3.25
2022-12-18T04:13:50.480Z,3.88
2022-12-18T04:16:26.161Z,5.03
2022-12-18T04:18:57.297Z,3.72
2022-12-18T04:21:27.408Z,3.42
2022-12-18T04:23:55.564Z,4.28
2022-12-18T04:29:15.868Z,3.92
2022-12-18T04:31:43.942Z,3.15
2022-12-18T04:34:12.733Z,3.97
2022-12-18T04:36:49.194Z,4.43
2022-12-18T04:39:17.865Z,3.13
2022-12-18T04:41:46.510Z,3.58
2022-12-18T04:44:15.593Z,3.63
2022-12-18T04:46:44.973Z,3.22
2022-12-18T04:49:13.610Z,4.40
2022-12-18T04:51:44.042Z,4.38
2022-12-18T04:54:12.021Z,3.20
2022-12-18T04:56:40.977Z,4.28
2022-12-18T04:59:08.834Z,3.95
2022-12-18T05:01:37.009Z,4.10
2022-12-18T05:04:05.239Z,3.85
2022-12-18T05:06:33.161Z,4.13
2022-12-18T05:09:01.471Z,3.45
2022-12-18T05:11:29.359Z,3.80
2022-12-18T05:13:57.234Z,4.40
2022-12-18T05:16:25.148Z,4.60
2022-12-18T05:18:53.284Z,4.43
2022-12-18T05:21:21.376Z,5.05
2022-12-18T05:23:49.273Z,5.32
2022-12-18T05:26:18.988Z,4.60
2022-12-18T05:28:47.240Z,3.72
2022-12-18T05:31:15.945Z,4.93
2022-12-18T05:33:44.247Z,4.88
2022-12-18T05:36:12.934Z,6.70
2022-12-18T05:38:41.229Z,4.63
2022-12-18T05:41:10.512Z,5.57
2022-12-18T05:43:40.702Z,7.30
2022-12-18T05:46:13.521Z,6.68
2022-12-18T05:48:42.736Z,11.20
2022-12-18T05:51:17.036Z,8.85
2022-12-18T05:53:45.356Z,7.50
2022-12-18T05:56:21.261Z,6.22
2022-12-18T05:58:54.173Z,13.27
2022-12-18T06:01:26.146Z,6.55
2022-12-18T06:03:54.250Z,10.10
2022-12-18T06:06:27.772Z,10.93
2022-12-18T06:08:56.801Z,16.52
2022-12-18T06:11:27.623Z,14.57
2022-12-18T06:13:59.160Z,9.52
2022-12-18T06:16:31.152Z,7.72
2022-12-18T06:19:01.007Z,12.15
2022-12-18T06:21:44.464Z,5.95
2022-12-18T06:24:12.556Z,11.10
2022-12-18T06:26:40.710Z,8.45
2022-12-18T06:29:08.740Z,9.48
2022-12-18T06:31:36.872Z,7.03
2022-12-18T06:34:05.570Z,7.15
2022-12-18T06:36:33.642Z,8.93
2022-12-18T06:39:01.716Z,11.27
2022-12-18T06:41:29.855Z,8.18
2022-12-18T06:44:00.108Z,7.85
2022-12-18T06:46:28.460Z,9.73
2022-12-18T06:48:56.333Z,8.32
2022-12-18T06:51:25.348Z,7.28
2022-12-18T06:53:53.348Z,7.60
2022-12-18T06:56:21.643Z,9.02
2022-12-18T06:58:50.252Z,11.40
2022-12-18T07:01:18.494Z,9.18
2022-12-18T07:03:46.828Z,6.75
2022-12-18T07:06:17.111Z,6.93
2022-12-18T07:08:46.648Z,8.40
2022-12-18T07:11:15.106Z,11.48
2022-12-18T07:13:43.484Z,11.50
2022-12-18T07:16:22.573Z,11.73
2022-12-18T07:18:55.361Z,15.10
2022-12-18T07:21:25.217Z,13.48
2022-12-18T07:23:53.303Z,12.70
2022-12-18T07:26:22.700Z,20.35
2022-12-18T07:28:51.169Z,9.40
2022-12-18T07:31:22.262Z,7.95
2022-12-18T07:33:51.629Z,9.88
2022-12-18T07:36:20.399Z,12.00
2022-12-18T07:38:53.612Z,10.75
2022-12-18T07:41:21.881Z,10.38
2022-12-18T07:43:49.962Z,15.95
2022-12-18T07:46:19.599Z,33.85
2022-12-18T07:48:49.765Z,10.65
2022-12-18T07:51:19.729Z,23.50
2022-12-18T07:53:49.345Z,8.35
2022-12-18T07:56:30.560Z,13.10
2022-12-18T07:59:00.861Z,8.95
2022-12-18T08:01:29.024Z,19.17
2022-12-18T08:03:58.389Z,12.55
2022-12-18T08:06:27.002Z,19.48
2022-12-18T08:08:59.635Z,16.08
2022-12-18T08:11:29.506Z,17.90
2022-12-18T08:13:58.737Z,19.92
2022-12-18T08:18:55.942Z,15.65
2022-12-18T08:21:29.702Z,11.60
2022-12-18T08:24:00.855Z,14.90
2022-12-18T08:26:31.733Z,12.32
2022-12-18T08:29:01.802Z,14.52
2022-12-18T08:31:32.042Z,12.13
2022-12-18T08:34:00.638Z,14.68
2022-12-18T08:36:29.198Z,15.88
2022-12-18T08:38:58.030Z,12.52
2022-12-18T08:41:26.981Z,9.23
2022-12-18T08:44:14.127Z,9.63
2022-12-18T08:46:44.772Z,10.20
2022-12-18T08:49:13.372Z,12.07
2022-12-18T08:51:41.842Z,12.50
2022-12-18T08:54:14.481Z,12.57
2022-12-18T08:56:42.492Z,13.35
2022-12-18T08:59:17.333Z,11.38
2022-12-18T09:01:48.281Z,10.65
2022-12-18T09:04:16.351Z,15.07
2022-12-18T09:06:44.707Z,11.82
2022-12-18T09:09:13.720Z,12.98
2022-12-18T09:11:42.130Z,11.55
2022-12-18T09:14:11.332Z,12.40
2022-12-18T09:16:39.819Z,10.82
2022-12-18T09:19:08.530Z,18.55
2022-12-18T09:21:47.777Z,12.18
2022-12-18T09:24:16.979Z,12.88
2022-12-18T09:26:47.083Z,28.40
2022-12-18T09:29:18.837Z,32.42
2022-12-18T09:31:48.246Z,15.25
2022-12-18T09:34:17.947Z,31.98
2022-12-18T09:36:46.455Z,11.20
2022-12-18T09:39:16.322Z,9.50
2022-12-18T09:41:55.094Z,12.23
2022-12-18T09:44:31.670Z,16.60
2022-12-18T09:47:24.801Z,20.25
2022-12-18T09:50:01.425Z,21.60
2022-12-18T10:01:13.367Z,45.25
2022-12-18T10:03:41.952Z,13.32
2022-12-18T10:06:20.368Z,12.30
2022-12-18T10:08:53.285Z,13.25
2022-12-18T10:11:49.351Z,13.80
2022-12-18T10:14:45.476Z,11.10
2022-12-18T10:17:42.292Z,28.60
2022-12-18T10:20:29.338Z,15.43
2022-12-18T10:23:15.871Z,11.15
2022-12-18T10:26:02.038Z,10.55
2022-12-18T10:28:32.758Z,11.35
2022-12-18T10:31:01.322Z,14.35
2022-12-18T10:33:32.832Z,9.13
2022-12-18T10:36:01.561Z,11.27
2022-12-18T10:38:31.877Z,12.82
2022-12-18T10:41:01.601Z,10.32
2022-12-18T10:43:37.844Z,12.77
2022-12-18T10:46:08.656Z,14.13
2022-12-18T10:48:48.698Z,13.35
2022-12-18T10:51:29.570Z,12.35
2022-12-18T10:54:13.725Z,14.60
2022-12-18T10:56:42.562Z,11.18
2022-12-18T10:59:14.956Z,11.93
2022-12-18T11:01:59.502Z,10.95
2022-12-18T11:04:30.362Z,10.60
2022-12-18T11:07:10.092Z,10.68
2022-12-18T11:09:40.932Z,10.18
2022-12-18T11:12:11.786Z,11.57
2022-12-18T11:14:46.744Z,11.15
2022-12-18T11:17:42.803Z,13.68
2022-12-18T11:20:40.327Z,12.90
2022-12-18T11:23:14.605Z,11.55
2022-12-18T11:25:57.017Z,11.23
2022-12-18T11:28:33.062Z,9.95
2022-12-18T11:31:25.796Z,11.80
2022-12-18T11:34:28.142Z,10.95
2022-12-18T11:36:54.428Z,9.82
2022-12-18T11:39:56.561Z,10.23
2022-12-18T11:42:47.161Z,18.80
2022-12-18T11:45:15.986Z,28.88
2022-12-18T11:47:55.925Z,21.25
2022-12-18T11:50:39.318Z,14.85
2022-12-18T11:53:12.575Z,34.40
2022-12-18T11:56:27.618Z,15.02
2022-12-18T11:59:11.513Z,16.40
2022-12-18T12:02:15.379Z,19.33
2022-12-18T12:05:12.103Z,16.98
2022-12-18T12:08:14.468Z,14.70
2022-12-18T12:11:03.728Z,10.20
2022-12-18T12:13:44.360Z,10.00
2022-12-18T12:16:23.851Z,12.45
2022-12-18T12:19:15.536Z,8.68
2022-12-18T12:21:53.089Z,10.88
2022-12-18T12:24:46.079Z,16.27
2022-12-18T12:27:20.623Z,9.90
2022-12-18T12:30:27.300Z,10.02
2022-12-18T12:33:11.037Z,9.15
2022-12-18T12:36:09.764Z,12.27
2022-12-18T12:38:53.790Z,9.00
2022-12-18T12:41:46.056Z,12.85
2022-12-18T12:44:23.548Z,8.35
2022-12-18T12:46:56.393Z,10.18
2022-12-18T12:49:30.726Z,10.15
2022-12-18T12:52:13.828Z,9.52
2022-12-18T12:54:43.275Z,8.88
2022-12-18T12:57:24.800Z,10.43
2022-12-18T13:00:09.388Z,9.85
2022-12-18T13:02:55.639Z,9.60
2022-12-18T13:05:31.319Z,11.52
2022-12-18T13:08:09.223Z,8.18
2022-12-18T13:10:43.482Z,9.80
2022-12-18T13:13:23.333Z,9.65
2022-12-18T13:16:08.123Z,7.82
2022-12-18T13:18:40.402Z,17.63
2022-12-18T13:21:35.881Z,10.90
2022-12-18T13:24:24.816Z,17.60
2022-12-18T13:26:53.383Z,34.92
2022-12-18T13:29:47.406Z,10.55
2022-12-18T13:32:27.590Z,12.70
2022-12-18T13:35:21.054Z,14.05
2022-12-18T13:37:55.524Z,11.90
2022-12-18T13:40:51.632Z,12.55
2022-12-18T13:43:20.642Z,11.05
2022-12-18T13:46:14.752Z,10.40
2022-12-18T13:48:56.394Z,11.98
2022-12-18T13:51:26.168Z,11.40
2022-12-18T13:54:04.459Z,9.70
2022-12-18T13:56:35.543Z,18.15
2022-12-18T13:59:18.583Z,13.07
2022-12-18T14:02:02.297Z,13.80
2022-12-18T14:04:35.861Z,11.68
2022-12-18T14:07:07.273Z,13.82
2022-12-18T14:09:41.561Z,13.15
2022-12-18T14:12:49.647Z,18.73
2022-12-18T14:15:31.697Z,12.32
2022-12-18T14:18:14.287Z,15.70
2022-12-18T14:20:50.664Z,16.40
2022-12-18T14:23:39.444Z,15.88
2022-12-18T14:26:40.263Z,15.20
2022-12-18T14:29:29.647Z,10.90
2022-12-18T14:32:18.889Z,12.45
2022-12-18T14:34:47.672Z,12.60
2022-12-18T14:37:19.289Z,12.45
2022-12-18T14:39:59.356Z,20.63
2022-12-18T14:42:31.249Z,16.88
2022-12-18T14:45:41.607Z,22.65
2022-12-18T14:48:23.092Z,27.58
2022-12-18T14:51:04.055Z,23.38
2022-12-18T14:53:35.272Z,21.85
2022-12-18T14:56:13.583Z,19.70
2022-12-18T14:58:47.961Z,16.63
2022-12-18T15:01:41.081Z,24.08
2022-12-18T15:04:29.700Z,17.58
2022-12-18T15:07:25.467Z,18.92
2022-12-18T15:10:14.734Z,16.55
2022-12-18T15:12:45.973Z,25.73
2022-12-18T15:15:39.326Z,20.10
2022-12-18T15:18:13.656Z,19.88
2022-12-18T15:21:00.494Z,23.80
2022-12-18T15:23:53.699Z,24.42
2022-12-18T15:26:23.618Z,22.52
2022-12-18T15:28:53.194Z,15.85
2022-12-18T15:31:33.157Z,15.30
2022-12-18T15:34:21.962Z,19.10
2022-12-18T15:36:52.872Z,18.35
2022-12-18T15:39:21.447Z,21.05
2022-12-18T15:42:08.926Z,11.15
2022-12-18T15:44:38.670Z,15.82
2022-12-18T15:47:13.856Z,13.35
2022-12-18T15:49:42.437Z,15.50
2022-12-18T15:52:26.187Z,12.82
2022-12-18T16:00:41.096Z,16.65
2022-12-18T16:03:11.190Z,12.13
2022-12-18T16:05:39.859Z,13.82
2022-12-18T16:08:08.279Z,17.00
2022-12-18T16:10:36.417Z,14.15
2022-12-18T16:13:04.772Z,18.80
2022-12-18T16:15:33.101Z,18.20
2022-12-18T16:18:01.874Z,17.65
2022-12-18T16:20:30.251Z,13.43
2022-12-18T16:22:59.157Z,19.95
2022-12-18T16:25:29.233Z,13.07
2022-12-18T16:27:58.359Z,16.90
2022-12-18T16:30:33.672Z,13.57
2022-12-18T16:33:07.698Z,10.35
2022-12-18T16:35:38.455Z,10.35
2022-12-18T16:38:07.060Z,8.68
2022-12-18T16:40:55.307Z,13.02
2022-12-18T16:43:23.365Z,11.05
2022-12-18T16:45:51.605Z,9.63
2022-12-18T16:48:20.350Z,9.13
2022-12-18T16:50:48.327Z,10.25
2022-12-18T16:53:16.344Z,9.98
2022-12-18T16:55:45.134Z,10.73
2022-12-18T16:58:13.083Z,13.18
2022-12-18T17:00:41.447Z,10.60
2022-12-18T17:03:10.065Z,11.38
2022-12-18T17:05:38.691Z,27.02
2022-12-18T17:08:07.481Z,24.52
2022-12-18T17:10:36.771Z,19.17
2022-12-18T17:13:05.688Z,19.70
2022-12-18T17:15:37.755Z,14.13
2022-12-18T17:18:06.526Z,12.55
2022-12-18T17:20:35.363Z,12.52
2022-12-18T17:23:03.817Z,9.13
2022-12-18T17:25:32.295Z,11.85
2022-12-18T17:30:30.428Z,9.15
2022-12-18T17:32:58.546Z,9.05
2022-12-18T17:35:26.745Z,12.13
2022-12-18T17:37:55.097Z,10.32
2022-12-18T17:42:54.140Z,9.13
2022-12-18T17:45:23.221Z,12.95
2022-12-18T17:47:56.765Z,9.15
2022-12-18T17:50:28.310Z,14.23
2022-12-18T17:52:57.672Z,10.30
2022-12-18T17:55:26.748Z,10.88
2022-12-18T17:57:55.352Z,9.23
2022-12-18T18:00:23.794Z,7.85
2022-12-18T18:02:52.868Z,9.82
2022-12-18T18:05:21.358Z,9.98
2022-12-18T18:07:50.430Z,8.05
2022-12-18T18:10:20.897Z,8.90
2022-12-18T18:13:07.218Z,8.05
2022-12-18T18:15:36.052Z,8.20
2022-12-18T18:18:06.313Z,9.40
2022-12-18T18:20:39.521Z,13.43
2022-12-18T18:23:07.730Z,14.43
2022-12-18T18:25:38.609Z,12.20
2022-12-18T18:28:07.112Z,11.07
2022-12-18T18:30:37.062Z,9.27
2022-12-18T18:33:10.338Z,16.98
2022-12-18T18:35:59.112Z,14.60
2022-12-18T18:38:29.571Z,13.38
2022-12-18T18:41:02.980Z,14.27
2022-12-18T18:43:31.309Z,9.82
2022-12-18T18:46:01.124Z,8.32
2022-12-18T18:48:33.784Z,10.18
2022-12-18T18:51:11.250Z,10.82
2022-12-18T18:53:44.410Z,18.45
2022-12-18T18:56:45.490Z,15.20
2022-12-18T18:59:03.685Z,11.30
2022-12-18T19:01:32.029Z,9.80
2022-12-18T19:04:03.074Z,12.07
2022-12-18T19:06:31.532Z,14.77
2022-12-18T19:09:03.624Z,11.48
2022-12-18T19:11:51.838Z,31.60
2022-12-18T19:14:23.349Z,10.23
2022-12-18T19:16:52.192Z,9.60
2022-12-18T19:19:21.422Z,8.85
2022-12-18T19:21:50.601Z,10.77
2022-12-18T19:24:22.619Z,14.07
2022-12-18T19:26:52.617Z,12.00
2022-12-18T19:29:25.113Z,11.00
2022-12-18T19:31:53.535Z,14.45
2022-12-18T19:34:22.332Z,12.65
2022-12-18T19:36:56.539Z,9.88
2022-12-18T19:39:28.266Z,9.30
2022-12-18T19:41:56.704Z,10.85
2022-12-18T19:44:25.325Z,11.30
2022-12-18T19:46:53.882Z,9.57
2022-12-18T19:49:22.608Z,8.77
2022-12-18T19:51:51.158Z,10.23
2022-12-18T19:54:19.564Z,8.40
2022-12-18T19:56:48.177Z,9.20
2022-12-18T19:59:16.691Z,10.27
2022-12-18T20:01:45.201Z,10.30
2022-12-18T20:04:13.797Z,11.15
2022-12-18T20:06:53.983Z,10.27
2022-12-18T20:09:22.638Z,10.10
2022-12-18T20:11:51.238Z,11.70
2022-12-18T20:14:23.400Z,10.85
2022-12-18T20:16:53.504Z,10.70
2022-12-18T20:19:22.681Z,10.15
2022-12-18T20:21:51.552Z,11.05
2022-12-18T20:24:19.710Z,10.32
2022-12-18T20:26:48.059Z,10.80
2022-12-18T20:29:16.354Z,10.93
2022-12-18T20:31:45.080Z,11.27
2022-12-18T20:34:13.590Z,9.75
2022-12-18T20:36:42.129Z,11.85
2022-12-18T20:39:12.216Z,10.35
2022-12-18T20:41:41.460Z,10.30
2022-12-18T20:44:22.334Z,12.80
2022-12-18T20:47:00.783Z,9.52
2022-12-18T20:49:33.441Z,9.60
2022-12-18T20:52:03.604Z,10.13
2022-12-18T20:54:32.244Z,10.25
2022-12-18T20:57:00.292Z,7.53
2022-12-18T20:59:28.510Z,9.50
2022-12-18T21:01:56.504Z,8.98
2022-12-18T21:04:25.320Z,9.95
2022-12-18T21:06:59.274Z,9.38
2022-12-18T21:09:37.410Z,9.48
2022-12-18T21:12:34.892Z,8.63
2022-12-18T21:15:11.667Z,11.05
2022-12-18T21:17:44.398Z,8.20
2022-12-18T21:20:17.610Z,9.95
2022-12-18T21:22:47.272Z,9.45
2022-12-18T21:25:15.291Z,8.45
2022-12-18T21:27:43.372Z,7.38
2022-12-18T21:30:15.308Z,6.93
2022-12-18T21:32:43.662Z,7.63
2022-12-18T21:35:12.103Z,7.65
2022-12-18T21:37:39.997Z,7.82
2022-12-18T21:40:08.750Z,9.02
2022-12-18T21:42:55.285Z,9.95
2022-12-18T21:45:23.328Z,7.80
2022-12-18T21:47:51.802Z,8.23
2022-12-18T21:50:19.755Z,10.52
2022-12-18T21:52:47.671Z,7.90
2022-12-18T21:55:21.988Z,8.00
2022-12-18T21:58:00.360Z,10.85
2022-12-18T22:06:06.721Z,9.65
2022-12-18T22:08:42.066Z,11.30
2022-12-18T22:11:13.504Z,9.38
2022-12-18T22:13:41.651Z,9.40
2022-12-18T22:16:09.899Z,10.65
2022-12-18T22:18:37.796Z,8.95
2022-12-18T22:21:06.351Z,8.88
2022-12-18T22:23:34.485Z,9.10
2022-12-18T22:26:03.723Z,9.70
2022-12-18T22:31:17.902Z,7.15
2022-12-18T22:33:46.028Z,8.63
2022-12-18T22:36:14.632Z,9.45
2022-12-18T22:38:46.748Z,9.02
2022-12-18T22:41:14.662Z,7.60
2022-12-18T22:43:42.509Z,7.70
2022-12-18T22:46:18.056Z,7.28
2022-12-18T22:48:50.486Z,9.75
2022-12-18T22:51:19.908Z,7.65
2022-12-18T22:56:21.080Z,7.60
2022-12-18T22:58:50.598Z,10.07
2022-12-18T23:01:24.692Z,10.50
2022-12-18T23:03:53.733Z,9.18
2022-12-18T23:06:23.107Z,9.75
2022-12-18T23:08:56.093Z,7.78
2022-12-18T23:11:25.796Z,8.15
2022-12-18T23:13:54.272Z,9.07
2022-12-18T23:16:25.885Z,10.60
2022-12-18T23:18:55.397Z,10.73
2022-12-18T23:21:23.810Z,10.02
2022-12-18T23:23:52.170Z,9.35
2022-12-18T23:26:23.000Z,11.00
2022-12-18T23:28:52.586Z,8.27
2022-12-18T23:31:29.696Z,9.15
2022-12-18T23:33:59.804Z,8.02
2022-12-18T23:36:28.761Z,9.02
2022-12-18T23:39:00.868Z,8.13
2022-12-18T23:41:30.841Z,8.45
2022-12-18T23:44:00.166Z,9.40
2022-12-18T23:46:33.524Z,10.38
2022-12-18T23:49:03.324Z,8.75
2022-12-18T23:51:33.802Z,9.82
2022-12-18T23:54:06.330Z,10.70
2022-12-18T23:56:35.925Z,9.90
2022-12-18T23:59:03.797Z,10.20
